sensor_id;sensor_type;location;lat;lon;timestamp;pressure;altitude;pressure_sealevel;temperature;humidity
21904;BME280;11116;51.554;7.812;2022-12-16T00:00:27;100175.00;;;-7.65;100.00
21904;BME280;11116;51.554;7.812;2022-12-16T00:02:57;100185.28;;;-7.67;100.00
21904;BME280;11116;51.554;7.812;2022-12-16T00:05:24;100175.94;;;-7.71;100.00
21904;BME280;11116;51.554;7.812;2022-12-16T00:07:51;100179.72;;;-7.90;100.00
21904;BME280;11116;51.554;7.812;2022-12-16T00:10:18;100188.41;;;-7.50;100.00
21904;BME280;11116;51.554;7.812;2022-12-16T00:12:44;100194.03;;;-7.31;100.00
21904;BME280;11116;51.554;7.812;2022-12-16T00:15:11;100186.50;;;-7.38;100.00
21904;BME280;11116;51.554;7.812;2022-12-16T00:17:38;100182.91;;;-7.28;100.00
21904;BME280;11116;51.554;7.812;2022-12-16T00:20:07;100174.25;;;-7.23;100.00
21904;BME280;11116;51.554;7.812;2022-12-16T00:22:35;100173.06;;;-7.07;100.00
21904;BME280;11116;51.554;7.812;2022-12-16T00:25:01;100167.13;;;-7.09;100.00
21904;BME280;11116;51.554;7.812;2022-12-16T00:27:28;100166.16;;;-7.03;100.00
21904;BME280;11116;51.554;7.812;2022-12-16T00:29:55;100166.81;;;-6.94;100.00
21904;BME280;11116;51.554;7.812;2022-12-16T00:32:22;100154.19;;;-7.03;100.00
21904;BME280;11116;51.554;7.812;2022-12-16T00:34:48;100162.69;;;-7.01;100.00
21904;BME280;11116;51.554;7.812;2022-12-16T00:37:17;100169.41;;;-6.95;100.00
21904;BME280;11116;51.554;7.812;2022-12-16T00:39:43;100167.75;;;-6.99;100.00
21904;BME280;11116;51.554;7.812;2022-12-16T00:42:10;100165.19;;;-6.99;100.00
21904;BME280;11116;51.554;7.812;2022-12-16T00:44:37;100173.38;;;-7.23;100.00
21904;BME280;11116;51.554;7.812;2022-12-16T00:47:03;100167.91;;;-7.50;100.00
21904;BME280;11116;51.554;7.812;2022-12-16T00:49:30;100174.88;;;-7.58;100.00
21904;BME280;11116;51.554;7.812;2022-12-16T00:51:57;100175.75;;;-7.59;100.00
21904;BME280;11116;51.554;7.812;2022-12-16T00:54:25;100176.16;;;-7.83;100.00
21904;BME280;11116;51.554;7.812;2022-12-16T00:56:52;100174.06;;;-8.12;100.00
21904;BME280;11116;51.554;7.812;2022-12-16T00:59:18;100181.19;;;-8.29;100.00
21904;BME280;11116;51.554;7.812;2022-12-16T01:01:45;100181.22;;;-8.32;100.00
21904;BME280;11116;51.554;7.812;2022-12-16T01:04:12;100173.16;;;-8.08;100.00
21904;BME280;11116;51.554;7.812;2022-12-16T01:06:39;100173.34;;;-8.20;100.00
21904;BME280;11116;51.554;7.812;2022-12-16T01:09:05;100169.47;;;-7.91;100.00
21904;BME280;11116;51.554;7.812;2022-12-16T01:11:35;100173.28;;;-7.63;100.00
21904;BME280;11116;51.554;7.812;2022-12-16T01:14:01;100177.19;;;-7.94;100.00
21904;BME280;11116;51.554;7.812;2022-12-16T01:16:29;100172.25;;;-8.07;100.00
21904;BME280;11116;51.554;7.812;2022-12-16T01:18:55;100178.06;;;-7.94;100.00
21904;BME280;11116;51.554;7.812;2022-12-16T01:21:22;100189.88;;;-7.85;100.00
21904;BME280;11116;51.554;7.812;2022-12-16T01:23:49;100190.72;;;-7.85;100.00
21904;BME280;11116;51.554;7.812;2022-12-16T01:26:16;100197.06;;;-8.07;100.00
21904;BME280;11116;51.554;7.812;2022-12-16T01:28:46;100190.84;;;-7.92;100.00
21904;BME280;11116;51.554;7.812;2022-12-16T01:31:14;100195.94;;;-7.91;100.00
21904;BME280;11116;51.554;7.812;2022-12-16T01:33:42;100200.81;;;-7.76;100.00
21904;BME280;11116;51.554;7.812;2022-12-16T01:36:09;100205.19;;;-7.81;100.00
21904;BME280;11116;51.554;7.812;2022-12-16T01:38:36;100210.34;;;-7.84;100.00
21904;BME280;11116;51.554;7.812;2022-12-16T01:41:04;100213.16;;;-8.01;100.00
21904;BME280;11116;51.554;7.812;2022-12-16T01:43:32;100222.41;;;-7.92;100.00
21904;BME280;11116;51.554;7.812;2022-12-16T01:46:02;100217.81;;;-7.72;100.00
21904;BME280;11116;51.554;7.812;2022-12-16T01:48:38;100213.31;;;-7.56;100.00
21904;BME280;11116;51.554;7.812;2022-12-16T01:51:08;100216.56;;;-7.48;100.00
21904;BME280;11116;51.554;7.812;2022-12-16T01:53:38;100208.13;;;-7.53;100.00
21904;BME280;11116;51.554;7.812;2022-12-16T01:56:06;100214.84;;;-7.46;100.00
21904;BME280;11116;51.554;7.812;2022-12-16T01:58:36;100211.78;;;-7.68;100.00
21904;BME280;11116;51.554;7.812;2022-12-16T02:01:07;100197.44;;;-7.78;100.00
21904;BME280;11116;51.554;7.812;2022-12-16T02:03:34;100201.88;;;-7.89;100.00
21904;BME280;11116;51.554;7.812;2022-12-16T02:06:02;100196.06;;;-7.98;100.00
21904;BME280;11116;51.554;7.812;2022-12-16T02:08:29;100195.28;;;-8.02;100.00
21904;BME280;11116;51.554;7.812;2022-12-16T02:11:07;100198.31;;;-7.80;100.00
21904;BME280;11116;51.554;7.812;2022-12-16T02:13:46;100207.94;;;-7.93;100.00
21904;BME280;11116;51.554;7.812;2022-12-16T02:16:25;100208.16;;;-8.08;100.00
21904;BME280;11116;51.554;7.812;2022-12-16T02:18:57;100209.78;;;-8.03;100.00
21904;BME280;11116;51.554;7.812;2022-12-16T02:21:44;100204.44;;;-7.87;100.00
21904;BME280;11116;51.554;7.812;2022-12-16T02:27:48;100202.03;;;-7.48;100.00
21904;BME280;11116;51.554;7.812;2022-12-16T02:30:38;100201.91;;;-7.40;100.00
21904;BME280;11116;51.554;7.812;2022-12-16T02:33:28;100198.66;;;-7.50;100.00
21904;BME280;11116;51.554;7.812;2022-12-16T02:36:02;100192.53;;;-7.41;100.00
21904;BME280;11116;51.554;7.812;2022-12-16T02:38:37;100195.28;;;-7.52;100.00
21904;BME280;11116;51.554;7.812;2022-12-16T02:41:10;100189.63;;;-7.72;100.00
21904;BME280;11116;51.554;7.812;2022-12-16T02:43:50;100193.03;;;-7.71;100.00
21904;BME280;11116;51.554;7.812;2022-12-16T02:46:23;100192.28;;;-7.75;100.00
21904;BME280;11116;51.554;7.812;2022-12-16T02:48:51;100196.75;;;-7.87;100.00
21904;BME280;11116;51.554;7.812;2022-12-16T02:51:19;100203.00;;;-8.05;100.00
21904;BME280;11116;51.554;7.812;2022-12-16T02:53:47;100193.00;;;-8.22;100.00
21904;BME280;11116;51.554;7.812;2022-12-16T02:56:27;100193.75;;;-8.14;100.00
21904;BME280;11116;51.554;7.812;2022-12-16T02:59:03;100194.84;;;-8.28;100.00
21904;BME280;11116;51.554;7.812;2022-12-16T03:01:40;100203.47;;;-8.35;100.00
21904;BME280;11116;51.554;7.812;2022-12-16T03:04:16;100200.41;;;-8.62;100.00
21904;BME280;11116;51.554;7.812;2022-12-16T03:06:47;100206.25;;;-8.50;100.00
21904;BME280;11116;51.554;7.812;2022-12-16T03:09:19;100208.09;;;-8.60;100.00
21904;BME280;11116;51.554;7.812;2022-12-16T03:11:49;100196.75;;;-8.42;100.00
21904;BME280;11116;51.554;7.812;2022-12-16T03:14:19;100204.34;;;-8.36;100.00
21904;BME280;11116;51.554;7.812;2022-12-16T03:16:50;100205.16;;;-8.34;100.00
21904;BME280;11116;51.554;7.812;2022-12-16T03:19:19;100204.88;;;-8.18;100.00
21904;BME280;11116;51.554;7.812;2022-12-16T03:21:51;100201.47;;;-8.18;100.00
21904;BME280;11116;51.554;7.812;2022-12-16T03:24:20;100208.50;;;-8.28;100.00
21904;BME280;11116;51.554;7.812;2022-12-16T03:26:51;100209.44;;;-8.35;100.00
21904;BME280;11116;51.554;7.812;2022-12-16T03:29:25;100208.50;;;-8.29;100.00
21904;BME280;11116;51.554;7.812;2022-12-16T03:31:57;100216.47;;;-8.49;100.00
21904;BME280;11116;51.554;7.812;2022-12-16T03:34:29;100205.34;;;-8.46;100.00
21904;BME280;11116;51.554;7.812;2022-12-16T03:36:59;100212.84;;;-8.34;100.00
21904;BME280;11116;51.554;7.812;2022-12-16T03:39:28;100219.72;;;-8.36;100.00
21904;BME280;11116;51.554;7.812;2022-12-16T03:41:57;100220.69;;;-8.46;100.00
21904;BME280;11116;51.554;7.812;2022-12-16T03:44:24;100222.34;;;-8.42;100.00
21904;BME280;11116;51.554;7.812;2022-12-16T03:46:52;100216.34;;;-8.41;100.00
21904;BME280;11116;51.554;7.812;2022-12-16T03:49:21;100217.25;;;-8.42;100.00
21904;BME280;11116;51.554;7.812;2022-12-16T03:51:48;100221.44;;;-8.37;100.00
21904;BME280;11116;51.554;7.812;2022-12-16T03:54:15;100225.06;;;-8.54;100.00
21904;BME280;11116;51.554;7.812;2022-12-16T03:56:43;100221.44;;;-8.38;100.00
21904;BME280;11116;51.554;7.812;2022-12-16T03:59:10;100223.91;;;-8.31;100.00
21904;BME280;11116;51.554;7.812;2022-12-16T04:01:38;100223.00;;;-8.30;100.00
21904;BME280;11116;51.554;7.812;2022-12-16T04:04:05;100221.88;;;-8.11;100.00
21904;BME280;11116;51.554;7.812;2022-12-16T04:06:33;100226.25;;;-8.19;100.00
21904;BME280;11116;51.554;7.812;2022-12-16T04:09:03;100217.59;;;-8.10;100.00
21904;BME280;11116;51.554;7.812;2022-12-16T04:11:29;100216.66;;;-8.05;100.00
21904;BME280;11116;51.554;7.812;2022-12-16T04:14:13;100221.59;;;-7.92;100.00
21904;BME280;11116;51.554;7.812;2022-12-16T04:16:57;100216.09;;;-8.25;100.00
21904;BME280;11116;51.554;7.812;2022-12-16T04:19:43;100216.34;;;-8.40;100.00
21904;BME280;11116;51.554;7.812;2022-12-16T04:22:31;100230.03;;;-8.42;100.00
21904;BME280;11116;51.554;7.812;2022-12-16T04:25:18;100225.44;;;-8.83;100.00
21904;BME280;11116;51.554;7.812;2022-12-16T04:27:46;100220.88;;;-8.60;100.00
21904;BME280;11116;51.554;7.812;2022-12-16T04:30:14;100226.94;;;-8.66;100.00
21904;BME280;11116;51.554;7.812;2022-12-16T04:32:44;100230.69;;;-8.95;100.00
21904;BME280;11116;51.554;7.812;2022-12-16T04:35:29;100237.47;;;-8.93;100.00
21904;BME280;11116;51.554;7.812;2022-12-16T04:38:15;100235.53;;;-8.71;100.00
21904;BME280;11116;51.554;7.812;2022-12-16T04:40:59;100249.78;;;-8.50;100.00
21904;BME280;11116;51.554;7.812;2022-12-16T04:43:43;100250.72;;;-8.57;100.00
21904;BME280;11116;51.554;7.812;2022-12-16T04:46:27;100245.63;;;-8.59;100.00
21904;BME280;11116;51.554;7.812;2022-12-16T04:49:12;100249.63;;;-8.40;100.00
21904;BME280;11116;51.554;7.812;2022-12-16T04:51:56;100254.44;;;-8.83;100.00
21904;BME280;11116;51.554;7.812;2022-12-16T04:54:38;100256.88;;;-8.74;100.00
21904;BME280;11116;51.554;7.812;2022-12-16T04:57:22;100261.25;;;-8.85;100.00
21904;BME280;11116;51.554;7.812;2022-12-16T05:00:07;100262.16;;;-8.86;100.00
21904;BME280;11116;51.554;7.812;2022-12-16T05:02:51;100268.88;;;-8.77;100.00
21904;BME280;11116;51.554;7.812;2022-12-16T05:05:36;100267.94;;;-8.72;100.00
21904;BME280;11116;51.554;7.812;2022-12-16T05:08:20;100268.75;;;-8.70;100.00
21904;BME280;11116;51.554;7.812;2022-12-16T05:11:08;100272.34;;;-8.83;100.00
21904;BME280;11116;51.554;7.812;2022-12-16T05:13:52;100272.28;;;-8.78;100.00
21904;BME280;11116;51.554;7.812;2022-12-16T05:16:37;100277.50;;;-8.87;100.00
21904;BME280;11116;51.554;7.812;2022-12-16T05:19:21;100270.50;;;-8.73;100.00
21904;BME280;11116;51.554;7.812;2022-12-16T05:22:05;100275.75;;;-8.84;100.00
21904;BME280;11116;51.554;7.812;2022-12-16T05:24:49;100281.13;;;-9.06;100.00
21904;BME280;11116;51.554;7.812;2022-12-16T05:27:35;100287.13;;;-9.09;100.00
21904;BME280;11116;51.554;7.812;2022-12-16T05:30:19;100289.63;;;-9.07;100.00
21904;BME280;11116;51.554;7.812;2022-12-16T05:33:03;100284.59;;;-9.17;100.00
21904;BME280;11116;51.554;7.812;2022-12-16T05:35:48;100296.41;;;-9.00;100.00
21904;BME280;11116;51.554;7.812;2022-12-16T05:38:32;100301.25;;;-8.75;100.00
21904;BME280;11116;51.554;7.812;2022-12-16T05:41:16;100303.00;;;-8.81;100.00
21904;BME280;11116;51.554;7.812;2022-12-16T05:44:02;100305.00;;;-9.09;100.00
21904;BME280;11116;51.554;7.812;2022-12-16T05:46:47;100304.28;;;-9.20;100.00
21904;BME280;11116;51.554;7.812;2022-12-16T05:49:31;100313.53;;;-9.08;100.00
21904;BME280;11116;51.554;7.812;2022-12-16T05:52:24;100310.97;;;-9.08;100.00
21904;BME280;11116;51.554;7.812;2022-12-16T05:55:08;100315.81;;;-8.80;100.00
21904;BME280;11116;51.554;7.812;2022-12-16T05:57:52;100320.88;;;-8.78;100.00
21904;BME280;11116;51.554;7.812;2022-12-16T06:00:38;100317.72;;;-9.00;100.00
21904;BME280;11116;51.554;7.812;2022-12-16T06:03:25;100326.34;;;-9.11;100.00
21904;BME280;11116;51.554;7.812;2022-12-16T06:06:09;100331.41;;;-9.05;100.00
21904;BME280;11116;51.554;7.812;2022-12-16T06:08:53;100340.91;;;-9.23;100.00
21904;BME280;11116;51.554;7.812;2022-12-16T06:11:38;100343.69;;;-9.51;100.00
21904;BME280;11116;51.554;7.812;2022-12-16T06:14:22;100348.56;;;-9.20;100.00
21904;BME280;11116;51.554;7.812;2022-12-16T06:17:08;100352.84;;;-9.22;100.00
21904;BME280;11116;51.554;7.812;2022-12-16T06:19:52;100362.53;;;-9.63;100.00
21904;BME280;11116;51.554;7.812;2022-12-16T06:22:36;100373.41;;;-9.35;100.00
21904;BME280;11116;51.554;7.812;2022-12-16T06:25:20;100381.03;;;-9.26;100.00
21904;BME280;11116;51.554;7.812;2022-12-16T06:28:05;100390.31;;;-9.19;100.00
21904;BME280;11116;51.554;7.812;2022-12-16T06:30:54;100397.16;;;-9.20;100.00
21904;BME280;11116;51.554;7.812;2022-12-16T06:33:40;100398.84;;;-9.19;100.00
21904;BME280;11116;51.554;7.812;2022-12-16T06:36:24;100398.88;;;-9.20;100.00
21904;BME280;11116;51.554;7.812;2022-12-16T06:39:08;100397.84;;;-8.98;100.00
21904;BME280;11116;51.554;7.812;2022-12-16T06:41:53;100390.19;;;-9.01;100.00
21904;BME280;11116;51.554;7.812;2022-12-16T06:44:37;100407.25;;;-9.01;100.00
21904;BME280;11116;51.554;7.812;2022-12-16T06:47:21;100406.31;;;-8.91;100.00
21904;BME280;11116;51.554;7.812;2022-12-16T06:50:07;100408.69;;;-8.73;100.00
21904;BME280;11116;51.554;7.812;2022-12-16T06:52:51;100415.56;;;-8.77;100.00
21904;BME280;11116;51.554;7.812;2022-12-16T06:55:36;100402.63;;;-8.63;100.00
21904;BME280;11116;51.554;7.812;2022-12-16T06:58:20;100407.63;;;-8.51;100.00
21904;BME280;11116;51.554;7.812;2022-12-16T07:01:04;100417.06;;;-8.57;100.00
21904;BME280;11116;51.554;7.812;2022-12-16T07:03:49;100418.53;;;-8.35;100.00
21904;BME280;11116;51.554;7.812;2022-12-16T07:06:34;100417.72;;;-8.37;100.00
21904;BME280;11116;51.554;7.812;2022-12-16T07:09:18;100423.81;;;-8.49;100.00
21904;BME280;11116;51.554;7.812;2022-12-16T07:12:03;100427.25;;;-8.51;100.00
21904;BME280;11116;51.554;7.812;2022-12-16T07:14:47;100431.63;;;-8.59;100.00
21904;BME280;11116;51.554;7.812;2022-12-16T07:17:32;100430.00;;;-8.71;100.00
21904;BME280;11116;51.554;7.812;2022-12-16T07:20:16;100437.06;;;-8.97;100.00
21904;BME280;11116;51.554;7.812;2022-12-16T07:23:02;100442.38;;;-9.25;100.00
21904;BME280;11116;51.554;7.812;2022-12-16T07:25:46;100453.31;;;-9.07;100.00
21904;BME280;11116;51.554;7.812;2022-12-16T07:28:30;100454.13;;;-9.02;100.00
21904;BME280;11116;51.554;7.812;2022-12-16T07:31:15;100459.38;;;-9.19;100.00
21904;BME280;11116;51.554;7.812;2022-12-16T07:33:59;100472.13;;;-9.11;100.00
21904;BME280;11116;51.554;7.812;2022-12-16T07:36:44;100480.50;;;-8.93;100.00
21904;BME280;11116;51.554;7.812;2022-12-16T07:39:29;100488.19;;;-8.94;100.00
21904;BME280;11116;51.554;7.812;2022-12-16T07:42:25;100490.13;;;-9.30;100.00
21904;BME280;11116;51.554;7.812;2022-12-16T07:45:09;100504.50;;;-9.12;100.00
21904;BME280;11116;51.554;7.812;2022-12-16T07:47:54;100509.38;;;-8.76;100.00
21904;BME280;11116;51.554;7.812;2022-12-16T07:50:35;100512.75;;;-8.72;100.00
21904;BME280;11116;51.554;7.812;2022-12-16T07:53:20;100513.72;;;-8.85;100.00
21904;BME280;11116;51.554;7.812;2022-12-16T07:56:06;100513.69;;;-8.81;100.00
21904;BME280;11116;51.554;7.812;2022-12-16T07:58:51;100521.31;;;-8.76;100.00
21904;BME280;11116;51.554;7.812;2022-12-16T08:01:35;100517.94;;;-8.81;100.00
21904;BME280;11116;51.554;7.812;2022-12-16T08:04:19;100529.97;;;-8.94;100.00
21904;BME280;11116;51.554;7.812;2022-12-16T08:07:04;100525.53;;;-8.69;100.00
21904;BME280;11116;51.554;7.812;2022-12-16T08:09:49;100535.59;;;-8.45;100.00
21904;BME280;11116;51.554;7.812;2022-12-16T08:12:34;100533.03;;;-8.49;100.00
21904;BME280;11116;51.554;7.812;2022-12-16T08:15:18;100538.09;;;-8.39;100.00
21904;BME280;11116;51.554;7.812;2022-12-16T08:18:02;100538.91;;;-8.34;100.00
21904;BME280;11116;51.554;7.812;2022-12-16T08:20:46;100540.41;;;-8.18;100.00
21904;BME280;11116;51.554;7.812;2022-12-16T08:23:31;100548.13;;;-8.19;100.00
21904;BME280;11116;51.554;7.812;2022-12-16T08:26:15;100547.91;;;-7.96;100.00
21904;BME280;11116;51.554;7.812;2022-12-16T08:29:01;100549.28;;;-7.65;100.00
21904;BME280;11116;51.554;7.812;2022-12-16T08:31:45;100545.56;;;-7.40;100.00
21904;BME280;11116;51.554;7.812;2022-12-16T08:34:29;100543.91;;;-7.44;100.00
21904;BME280;11116;51.554;7.812;2022-12-16T08:37:14;100556.53;;;-7.29;100.00
21904;BME280;11116;51.554;7.812;2022-12-16T08:39:58;100555.63;;;-7.25;100.00
21904;BME280;11116;51.554;7.812;2022-12-16T08:42:42;100556.19;;;-7.05;100.00
21904;BME280;11116;51.554;7.812;2022-12-16T08:45:27;100556.03;;;-6.91;100.00
21904;BME280;11116;51.554;7.812;2022-12-16T08:48:12;100556.13;;;-6.97;100.00
21904;BME280;11116;51.554;7.812;2022-12-16T08:50:59;100561.19;;;-6.93;100.00
21904;BME280;11116;51.554;7.812;2022-12-16T08:53:43;100555.03;;;-6.81;100.00
21904;BME280;11116;51.554;7.812;2022-12-16T08:56:28;100574.53;;;-6.68;100.00
21904;BME280;11116;51.554;7.812;2022-12-16T08:59:12;100576.88;;;-6.56;100.00
21904;BME280;11116;51.554;7.812;2022-12-16T09:01:58;100580.03;;;-6.36;100.00
21904;BME280;11116;51.554;7.812;2022-12-16T09:04:42;100585.66;;;-6.14;100.00
21904;BME280;11116;51.554;7.812;2022-12-16T09:07:26;100583.63;;;-5.97;100.00
21904;BME280;11116;51.554;7.812;2022-12-16T09:10:11;100586.72;;;-5.78;100.00
21904;BME280;11116;51.554;7.812;2022-12-16T09:13:04;100587.31;;;-5.64;100.00
21904;BME280;11116;51.554;7.812;2022-12-16T09:15:48;100594.88;;;-5.55;100.00
21904;BME280;11116;51.554;7.812;2022-12-16T09:18:34;100590.25;;;-5.39;100.00
21904;BME280;11116;51.554;7.812;2022-12-16T09:21:18;100604.66;;;-5.29;100.00
21904;BME280;11116;51.554;7.812;2022-12-16T09:24:03;100607.97;;;-5.23;100.00
21904;BME280;11116;51.554;7.812;2022-12-16T09:26:47;100607.50;;;-5.00;100.00
21904;BME280;11116;51.554;7.812;2022-12-16T09:29:31;100609.59;;;-4.79;100.00
21904;BME280;11116;51.554;7.812;2022-12-16T09:32:16;100607.47;;;-4.59;100.00
21904;BME280;11116;51.554;7.812;2022-12-16T09:35:02;100622.56;;;-4.43;100.00
21904;BME280;11116;51.554;7.812;2022-12-16T09:37:46;100620.31;;;-4.98;100.00
21904;BME280;11116;51.554;7.812;2022-12-16T09:40:31;100622.94;;;-5.00;100.00
21904;BME280;11116;51.554;7.812;2022-12-16T09:43:38;100617.09;;;-5.08;100.00
21904;BME280;11116;51.554;7.812;2022-12-16T09:46:32;100622.75;;;-4.91;100.00
21904;BME280;11116;51.554;7.812;2022-12-16T09:49:26;100631.06;;;-4.78;100.00
21904;BME280;11116;51.554;7.812;2022-12-16T09:52:20;100631.53;;;-4.61;100.00
21904;BME280;11116;51.554;7.812;2022-12-16T09:55:18;100642.31;;;-4.44;100.00
21904;BME280;11116;51.554;7.812;2022-12-16T09:58:06;100649.72;;;-4.29;100.00
21904;BME280;11116;51.554;7.812;2022-12-16T10:00:51;100660.47;;;-4.10;100.00
21904;BME280;11116;51.554;7.812;2022-12-16T10:03:37;100653.75;;;-3.82;100.00
21904;BME280;11116;51.554;7.812;2022-12-16T10:06:32;100655.41;;;-3.46;100.00
21904;BME280;11116;51.554;7.812;2022-12-16T10:09:24;100658.09;;;-3.18;100.00
21904;BME280;11116;51.554;7.812;2022-12-16T10:12:16;100656.69;;;-2.99;100.00
21904;BME280;11116;51.554;7.812;2022-12-16T10:15:13;100651.09;;;-2.83;100.00
21904;BME280;11116;51.554;7.812;2022-12-16T10:18:12;100643.50;;;-2.90;100.00
21904;BME280;11116;51.554;7.812;2022-12-16T10:20:59;100651.53;;;-2.69;100.00
21904;BME280;11116;51.554;7.812;2022-12-16T10:23:49;100647.34;;;-2.44;100.00
21904;BME280;11116;51.554;7.812;2022-12-16T10:26:48;100649.22;;;-2.21;100.00
21904;BME280;11116;51.554;7.812;2022-12-16T10:29:38;100654.13;;;-2.12;100.00
21904;BME280;11116;51.554;7.812;2022-12-16T10:32:26;100636.88;;;-2.12;100.00
21904;BME280;11116;51.554;7.812;2022-12-16T10:35:18;100640.25;;;-2.67;100.00
21904;BME280;11116;51.554;7.812;2022-12-16T10:38:06;100650.97;;;-2.50;100.00
21904;BME280;11116;51.554;7.812;2022-12-16T10:40:55;100647.38;;;-2.46;100.00
21904;BME280;11116;51.554;7.812;2022-12-16T10:43:42;100651.78;;;-2.77;100.00
21904;BME280;11116;51.554;7.812;2022-12-16T10:46:32;100648.09;;;-2.70;100.00
21904;BME280;11116;51.554;7.812;2022-12-16T10:49:17;100656.31;;;-2.56;100.00
21904;BME280;11116;51.554;7.812;2022-12-16T10:52:01;100656.09;;;-2.48;100.00
21904;BME280;11116;51.554;7.812;2022-12-16T10:54:56;100654.53;;;-2.26;100.00
21904;BME280;11116;51.554;7.812;2022-12-16T10:57:50;100655.72;;;-1.82;100.00
21904;BME280;11116;51.554;7.812;2022-12-16T11:00:43;100661.81;;;-1.57;100.00
21904;BME280;11116;51.554;7.812;2022-12-16T11:03:29;100656.81;;;-1.38;100.00
21904;BME280;11116;51.554;7.812;2022-12-16T11:06:16;100645.00;;;-1.45;100.00
21904;BME280;11116;51.554;7.812;2022-12-16T11:09:19;100640.44;;;-1.14;100.00
21904;BME280;11116;51.554;7.812;2022-12-16T11:12:19;100645.09;;;-1.48;100.00
21904;BME280;11116;51.554;7.812;2022-12-16T11:15:18;100639.22;;;-2.06;100.00
21904;BME280;11116;51.554;7.812;2022-12-16T11:18:06;100649.56;;;-2.04;100.00
21904;BME280;11116;51.554;7.812;2022-12-16T11:21:10;100646.38;;;-2.12;100.00
21904;BME280;11116;51.554;7.812;2022-12-16T11:24:04;100652.47;;;-2.15;100.00
21904;BME280;11116;51.554;7.812;2022-12-16T11:26:52;100647.84;;;-2.05;100.00
21904;BME280;11116;51.554;7.812;2022-12-16T11:29:48;100645.66;;;-1.91;100.00
21904;BME280;11116;51.554;7.812;2022-12-16T11:32:33;100649.06;;;-1.89;100.00
21904;BME280;11116;51.554;7.812;2022-12-16T11:35:23;100648.97;;;-1.86;100.00
21904;BME280;11116;51.554;7.812;2022-12-16T11:38:15;100653.00;;;-1.78;100.00
21904;BME280;11116;51.554;7.812;2022-12-16T11:41:02;100654.97;;;-1.86;100.00
21904;BME280;11116;51.554;7.812;2022-12-16T11:43:49;100650.22;;;-1.72;100.00
21904;BME280;11116;51.554;7.812;2022-12-16T11:46:35;100651.03;;;-1.71;100.00
21904;BME280;11116;51.554;7.812;2022-12-16T11:49:24;100659.41;;;-1.63;100.00
21904;BME280;11116;51.554;7.812;2022-12-16T11:52:13;100659.78;;;-1.49;100.00
21904;BME280;11116;51.554;7.812;2022-12-16T11:55:05;100657.19;;;-1.49;100.00
21904;BME280;11116;51.554;7.812;2022-12-16T11:57:55;100662.59;;;-1.55;100.00
21904;BME280;11116;51.554;7.812;2022-12-16T12:00:51;100662.31;;;-1.47;100.00
21904;BME280;11116;51.554;7.812;2022-12-16T12:03:40;100664.16;;;-1.51;100.00
21904;BME280;11116;51.554;7.812;2022-12-16T12:06:31;100664.06;;;-1.48;100.00
21904;BME280;11116;51.554;7.812;2022-12-16T12:09:20;100663.81;;;-1.40;100.00
21904;BME280;11116;51.554;7.812;2022-12-16T12:12:13;100664.66;;;-1.40;100.00
21904;BME280;11116;51.554;7.812;2022-12-16T12:15:06;100673.88;;;-1.31;100.00
21904;BME280;11116;51.554;7.812;2022-12-16T12:17:57;100657.47;;;-1.32;100.00
21904;BME280;11116;51.554;7.812;2022-12-16T12:20:49;100659.28;;;-1.34;100.00
21904;BME280;11116;51.554;7.812;2022-12-16T12:23:45;100656.41;;;-1.26;100.00
21904;BME280;11116;51.554;7.812;2022-12-16T12:26:34;100657.25;;;-1.26;100.00
21904;BME280;11116;51.554;7.812;2022-12-16T12:29:31;100670.75;;;-0.93;100.00
21904;BME280;11116;51.554;7.812;2022-12-16T12:32:22;100655.34;;;-1.21;100.00
21904;BME280;11116;51.554;7.812;2022-12-16T12:35:41;100655.34;;;-1.21;100.00
21904;BME280;11116;51.554;7.812;2022-12-16T12:38:32;100655.97;;;-1.14;100.00
21904;BME280;11116;51.554;7.812;2022-12-16T12:41:25;100667.88;;;-1.08;100.00
21904;BME280;11116;51.554;7.812;2022-12-16T12:44:19;100672.09;;;-1.06;100.00
21904;BME280;11116;51.554;7.812;2022-12-16T12:47:07;100668.88;;;-1.13;100.00
21904;BME280;11116;51.554;7.812;2022-12-16T12:49:56;100670.41;;;-1.07;100.00
21904;BME280;11116;51.554;7.812;2022-12-16T12:53:02;100667.69;;;-1.04;100.00
21904;BME280;11116;51.554;7.812;2022-12-16T12:55:56;100671.00;;;-0.99;100.00
21904;BME280;11116;51.554;7.812;2022-12-16T12:58:46;100671.59;;;-0.92;100.00
21904;BME280;11116;51.554;7.812;2022-12-16T13:01:49;100664.25;;;-1.04;100.00
21904;BME280;11116;51.554;7.812;2022-12-16T13:04:35;100666.63;;;-0.98;100.00
21904;BME280;11116;51.554;7.812;2022-12-16T13:07:32;100669.22;;;-0.98;100.00
21904;BME280;11116;51.554;7.812;2022-12-16T13:10:33;100671.00;;;-0.99;100.00
21904;BME280;11116;51.554;7.812;2022-12-16T13:13:35;100674.19;;;-0.92;100.00
21904;BME280;11116;51.554;7.812;2022-12-16T13:19:51;100674.91;;;-0.87;100.00
21904;BME280;11116;51.554;7.812;2022-12-16T13:22:37;100684.09;;;-0.79;100.00
21904;BME280;11116;51.554;7.812;2022-12-16T13:25:34;100678.16;;;-0.82;100.00
21904;BME280;11116;51.554;7.812;2022-12-16T13:28:21;100683.38;;;-0.84;100.00
21904;BME280;11116;51.554;7.812;2022-12-16T13:31:07;100687.69;;;-0.83;100.00
21904;BME280;11116;51.554;7.812;2022-12-16T13:33:53;100677.09;;;-0.77;100.00
21904;BME280;11116;51.554;7.812;2022-12-16T13:36:39;100684.03;;;-0.77;100.00
21904;BME280;11116;51.554;7.812;2022-12-16T13:39:25;100692.94;;;-0.84;100.00
21904;BME280;11116;51.554;7.812;2022-12-16T13:45:33;100704.00;;;-0.81;100.00
21904;BME280;11116;51.554;7.812;2022-12-16T13:48:33;100711.44;;;-0.70;100.00
21904;BME280;11116;51.554;7.812;2022-12-16T13:51:57;100713.72;;;-0.86;100.00
21904;BME280;11116;51.554;7.812;2022-12-16T13:54:51;100718.28;;;-0.69;100.00
21904;BME280;11116;51.554;7.812;2022-12-16T13:57:41;100722.38;;;-0.87;100.00
21904;BME280;11116;51.554;7.812;2022-12-16T14:00:31;100733.78;;;-0.91;100.00
21904;BME280;11116;51.554;7.812;2022-12-16T14:03:23;100738.22;;;-0.94;100.00
21904;BME280;11116;51.554;7.812;2022-12-16T14:06:14;100743.69;;;-1.02;100.00